createdAt,value
2023-05-06T00:00:58.810Z,87.14
2023-05-06T00:04:01.044Z,86.67
2023-05-06T00:07:02.962Z,86.40
2023-05-06T00:10:05.280Z,86.30
2023-05-06T00:13:08.227Z,86.10
2023-05-06T00:16:10.094Z,85.94
2023-05-06T00:19:12.403Z,85.78
2023-05-06T00:22:14.172Z,85.82
2023-05-06T00:25:16.016Z,85.45
2023-05-06T00:28:17.861Z,85.79
2023-05-06T00:31:19.633Z,86.01
2023-05-06T00:34:21.338Z,87.04
2023-05-06T00:37:23.302Z,88.70
2023-05-06T00:40:25.075Z,88.33
2023-05-06T00:43:26.853Z,87.79
2023-05-06T00:46:28.670Z,88.03
2023-05-06T00:49:31.115Z,88.76
2023-05-06T00:52:32.940Z,88.29
2023-05-06T00:55:35.557Z,88.23
2023-05-06T00:58:37.592Z,87.83
2023-05-06T01:01:39.424Z,87.88
2023-05-06T01:04:41.554Z,87.54
2023-05-06T01:08:01.906Z,87.50
2023-05-06T01:11:24.883Z,87.53
2023-05-06T01:14:38.657Z,87.80
2023-05-06T01:17:46.599Z,87.96
2023-05-06T01:20:50.989Z,87.92
2023-05-06T01:23:58.292Z,87.75
2023-05-06T01:27:00.338Z,88.25
2023-05-06T01:30:02.651Z,88.33
2023-05-06T01:33:09.690Z,88.43
2023-05-06T01:36:20.820Z,88.46
2023-05-06T01:39:26.907Z,88.42
2023-05-06T01:42:29.594Z,88.48
2023-05-06T01:45:32.004Z,88.72
2023-05-06T01:48:36.574Z,88.44
2023-05-06T01:51:38.724Z,88.58
2023-05-06T01:54:40.827Z,88.58
2023-05-06T01:57:42.668Z,88.93
2023-05-06T02:00:44.567Z,89.32
2023-05-06T02:03:46.625Z,89.51
2023-05-06T02:06:48.540Z,89.72
2023-05-06T02:09:50.726Z,89.49
2023-05-06T02:12:52.686Z,89.71
2023-05-06T02:15:54.828Z,90.20
2023-05-06T02:18:57.818Z,91.25
2023-05-06T02:21:59.701Z,91.51
2023-05-06T02:25:01.613Z,90.14
2023-05-06T02:28:03.641Z,89.91
2023-05-06T02:31:05.918Z,89.81
2023-05-06T02:34:08.880Z,89.73
2023-05-06T02:37:10.816Z,89.78
2023-05-06T02:40:12.728Z,89.63
2023-05-06T02:43:14.662Z,90.17
2023-05-06T02:46:16.684Z,90.46
2023-05-06T02:49:18.611Z,92.69
2023-05-06T02:52:20.969Z,94.84
2023-05-06T02:55:22.690Z,92.93
2023-05-06T02:58:24.610Z,92.08
2023-05-06T03:01:26.542Z,91.79
2023-05-06T03:04:28.607Z,91.90
2023-05-06T03:07:31.095Z,91.63
2023-05-06T03:10:32.957Z,91.45
2023-05-06T03:13:34.873Z,91.76
2023-05-06T03:16:36.732Z,91.68
2023-05-06T03:19:38.540Z,92.16
2023-05-06T03:22:42.256Z,91.88
2023-05-06T03:25:44.304Z,92.01
2023-05-06T03:28:46.164Z,91.99
2023-05-06T03:31:51.045Z,91.93
2023-05-06T03:34:52.940Z,91.72
2023-05-06T03:37:55.083Z,91.69
2023-05-06T03:40:56.861Z,91.79
2023-05-06T03:43:58.853Z,92.02
2023-05-06T03:47:00.633Z,91.83
2023-05-06T03:50:02.900Z,91.71
2023-05-06T03:53:04.769Z,91.70
2023-05-06T03:56:07.070Z,91.82
2023-05-06T03:59:08.990Z,92.07
2023-05-06T04:02:10.754Z,92.25
2023-05-06T04:05:12.853Z,95.21
2023-05-06T04:08:14.852Z,95.59
2023-05-06T04:11:16.598Z,93.89
2023-05-06T04:14:18.364Z,93.44
2023-05-06T04:17:20.461Z,94.47
2023-05-06T04:20:22.217Z,95.50
2023-05-06T04:23:24.023Z,94.32
2023-05-06T04:26:25.806Z,94.29
2023-05-06T04:29:27.740Z,95.05
2023-05-06T04:32:29.686Z,95.69
2023-05-06T04:35:31.908Z,93.99
2023-05-06T04:38:33.946Z,93.78
2023-05-06T04:41:35.706Z,94.96
2023-05-06T04:44:37.465Z,94.65
2023-05-06T04:47:39.290Z,91.94
2023-05-06T04:50:41.197Z,91.91
2023-05-06T04:53:43.189Z,92.14
2023-05-06T04:56:44.957Z,92.59
2023-05-06T04:59:47.966Z,92.66
2023-05-06T05:02:49.882Z,92.88
2023-05-06T05:05:52.036Z,92.43
2023-05-06T05:08:55.327Z,93.44
2023-05-06T05:11:57.474Z,93.47
2023-05-06T05:14:59.215Z,94.32
2023-05-06T05:18:01.060Z,95.06
2023-05-06T05:21:03.881Z,94.56
2023-05-06T05:24:06.217Z,93.37
2023-05-06T05:27:07.946Z,92.66
2023-05-06T05:30:12.687Z,92.54
2023-05-06T05:33:15.277Z,92.89
2023-05-06T05:36:17.380Z,91.48
2023-05-06T05:39:19.197Z,91.25
2023-05-06T05:42:21.056Z,90.11
2023-05-06T05:45:22.802Z,88.27
2023-05-06T05:48:24.873Z,87.38
2023-05-06T05:51:27.004Z,85.84
2023-05-06T05:54:28.946Z,85.07
2023-05-06T05:57:30.890Z,83.99
2023-05-06T06:00:33.934Z,81.91
2023-05-06T06:03:36.232Z,79.57
2023-05-06T06:06:38.332Z,78.89
2023-05-06T06:09:40.179Z,78.01
2023-05-06T06:12:44.144Z,74.54
2023-05-06T06:15:46.506Z,73.46
2023-05-06T06:18:48.293Z,73.10
2023-05-06T06:21:50.389Z,71.79
2023-05-06T06:24:53.871Z,71.67
2023-05-06T06:27:56.687Z,71.10
2023-05-06T06:30:58.562Z,70.44
2023-05-06T06:34:00.973Z,70.04
2023-05-06T06:37:02.817Z,70.03
2023-05-06T06:40:05.185Z,70.53
2023-05-06T06:43:07.192Z,69.43
2023-05-06T06:46:08.946Z,68.04
2023-05-06T06:49:10.866Z,67.22
2023-05-06T06:52:12.981Z,68.41
2023-05-06T06:55:14.925Z,67.75
2023-05-06T06:58:16.739Z,66.65
2023-05-06T07:01:18.914Z,66.31
2023-05-06T07:04:20.987Z,66.24
2023-05-06T07:07:22.825Z,66.11
2023-05-06T07:10:24.678Z,66.96
2023-05-06T07:13:26.780Z,65.31
2023-05-06T07:16:28.895Z,64.08
2023-05-06T07:19:31.666Z,63.15
2023-05-06T07:22:33.486Z,62.72
2023-05-06T07:25:35.598Z,61.90
2023-05-06T07:28:37.434Z,62.11
2023-05-06T07:31:39.409Z,61.34
2023-05-06T07:34:41.208Z,59.64
2023-05-06T07:37:43.004Z,58.97
2023-05-06T07:40:44.917Z,59.27
2023-05-06T07:43:47.028Z,57.72
2023-05-06T07:46:49.636Z,57.31
2023-05-06T07:49:51.755Z,54.74
2023-05-06T07:52:53.623Z,56.25
2023-05-06T07:56:01.743Z,57.50
2023-05-06T07:59:03.711Z,56.58
2023-05-06T08:02:06.141Z,57.45
2023-05-06T08:05:08.928Z,57.15
2023-05-06T08:08:11.049Z,55.70
2023-05-06T08:11:13.052Z,54.79
2023-05-06T08:14:17.325Z,54.83
2023-05-06T08:17:19.412Z,54.10
2023-05-06T08:20:21.823Z,54.73
2023-05-06T08:23:23.738Z,54.96
2023-05-06T08:26:25.616Z,53.54
2023-05-06T08:29:27.643Z,52.99
2023-05-06T08:32:29.406Z,52.91
2023-05-06T08:35:31.269Z,52.56
2023-05-06T08:38:40.520Z,52.42
2023-05-06T08:41:49.726Z,52.17
2023-05-06T08:44:53.433Z,51.16
2023-05-06T08:47:55.761Z,52.73
2023-05-06T08:50:59.334Z,51.14
2023-05-06T08:54:03.622Z,51.43
2023-05-06T08:57:09.112Z,50.41
2023-05-06T09:00:12.981Z,50.89
2023-05-06T09:03:15.654Z,53.95
2023-05-06T09:06:18.741Z,51.46
2023-05-06T09:09:25.221Z,52.08
2023-05-06T09:12:27.636Z,51.69
2023-05-06T09:15:42.595Z,51.65
2023-05-06T09:18:45.676Z,50.30
2023-05-06T09:21:51.656Z,49.07
2023-05-06T09:24:58.537Z,48.15
2023-05-06T09:28:08.478Z,48.82
2023-05-06T09:31:19.778Z,47.66
2023-05-06T09:34:25.596Z,47.39
2023-05-06T09:37:32.169Z,46.52
2023-05-06T09:40:38.572Z,46.15
2023-05-06T09:43:45.340Z,45.47
2023-05-06T09:46:47.616Z,44.95
2023-05-06T09:49:50.233Z,43.65
2023-05-06T09:52:55.182Z,43.50
2023-05-06T09:55:58.826Z,43.20
2023-05-06T09:59:04.404Z,42.43
2023-05-06T10:02:06.998Z,42.21
2023-05-06T10:05:10.892Z,40.83
2023-05-06T10:08:18.404Z,40.24
2023-05-06T10:11:21.829Z,40.28
2023-05-06T10:14:25.985Z,39.31
2023-05-06T10:17:29.532Z,40.00
2023-05-06T10:20:34.871Z,39.12
2023-05-06T10:23:45.781Z,39.31
2023-05-06T10:26:49.336Z,40.15
2023-05-06T10:29:55.040Z,40.95
2023-05-06T10:33:05.003Z,40.68
2023-05-06T10:36:23.936Z,40.22
2023-05-06T10:39:28.553Z,41.18
2023-05-06T10:42:35.779Z,41.81
2023-05-06T10:46:02.415Z,41.70
2023-05-06T10:49:04.953Z,43.18
2023-05-06T10:52:14.969Z,41.96
2023-05-06T10:55:36.525Z,41.43
2023-05-06T10:58:38.903Z,41.33
2023-05-06T11:01:43.454Z,40.70
2023-05-06T11:04:52.099Z,40.67
2023-05-06T11:08:09.229Z,40.64
2023-05-06T11:11:49.594Z,41.31
2023-05-06T11:14:52.084Z,41.85
2023-05-06T11:17:55.923Z,41.52
2023-05-06T11:21:01.905Z,41.22
2023-05-06T11:24:04.535Z,41.62
2023-05-06T11:27:07.749Z,42.07
2023-05-06T11:30:15.101Z,42.88
2023-05-06T11:33:19.551Z,41.96
2023-05-06T11:36:22.049Z,42.66
2023-05-06T11:39:26.007Z,44.07
2023-05-06T11:42:29.483Z,44.54
2023-05-06T11:45:44.434Z,44.91
2023-05-06T11:48:46.818Z,45.26
2023-05-06T11:51:49.741Z,45.41
2023-05-06T11:54:53.896Z,45.67
2023-05-06T11:57:55.682Z,46.12
2023-05-06T12:00:59.272Z,46.41
2023-05-06T12:04:02.230Z,46.51
2023-05-06T12:07:05.995Z,46.44
2023-05-06T12:10:08.640Z,46.57
2023-05-06T12:13:11.028Z,46.84
2023-05-06T12:16:13.144Z,47.45
2023-05-06T12:19:18.692Z,48.06
2023-05-06T12:22:22.440Z,48.64
2023-05-06T12:25:24.954Z,48.92
2023-05-06T12:28:27.398Z,49.33
2023-05-06T12:31:29.237Z,49.54
2023-05-06T12:34:41.070Z,49.92
2023-05-06T12:37:47.375Z,50.54
2023-05-06T12:40:54.005Z,51.21
2023-05-06T12:43:55.836Z,52.24
2023-05-06T12:46:58.263Z,52.71
2023-05-06T12:50:00.982Z,53.04
2023-05-06T12:53:04.311Z,54.35
2023-05-06T12:56:06.281Z,55.86
2023-05-06T12:59:08.806Z,56.32
2023-05-06T13:02:11.135Z,55.47
2023-05-06T13:05:14.320Z,55.72
2023-05-06T13:08:16.202Z,55.65
2023-05-06T13:11:18.130Z,55.97
2023-05-06T13:14:20.080Z,55.64
2023-05-06T13:17:22.029Z,56.01
2023-05-06T13:20:23.829Z,57.39
2023-05-06T13:23:25.610Z,57.45
2023-05-06T13:26:27.546Z,58.07
2023-05-06T13:29:29.844Z,58.39
2023-05-06T13:32:32.578Z,58.82
2023-05-06T13:35:34.912Z,59.68
2023-05-06T13:38:40.915Z,61.89
2023-05-06T13:41:43.416Z,63.00
2023-05-06T13:44:46.199Z,66.28
2023-05-06T13:47:48.309Z,67.05
2023-05-06T13:50:50.776Z,67.93
2023-05-06T13:53:53.383Z,68.98
2023-05-06T13:56:56.438Z,69.83
2023-05-06T13:59:58.480Z,72.47
2023-05-06T14:03:00.742Z,76.55
2023-05-06T14:06:03.398Z,78.31
2023-05-06T14:09:05.510Z,76.62
2023-05-06T14:12:07.497Z,78.54
2023-05-06T14:15:10.596Z,79.89
2023-05-06T14:18:12.532Z,78.83
2023-05-06T14:21:15.244Z,78.49
2023-05-06T14:24:17.200Z,83.58
2023-05-06T14:27:19.015Z,86.02
2023-05-06T14:30:21.554Z,88.84
2023-05-06T14:33:23.581Z,89.59
2023-05-06T14:36:25.470Z,92.95
2023-05-06T14:39:27.448Z,95.29
2023-05-06T14:42:29.396Z,100.00
2023-05-06T14:45:31.389Z,100.00
2023-05-06T14:48:33.395Z,100.00
2023-05-06T14:51:35.230Z,100.00
2023-05-06T14:54:42.223Z,100.00
2023-05-06T14:57:44.291Z,100.00
2023-05-06T15:00:46.210Z,100.00
2023-05-06T15:03:48.123Z,100.00
2023-05-06T15:06:49.859Z,100.00
2023-05-06T15:09:52.421Z,99.33
2023-05-06T15:12:54.354Z,98.58
2023-05-06T15:15:56.073Z,96.29
2023-05-06T15:18:57.815Z,94.35
2023-05-06T15:22:00.054Z,93.63
2023-05-06T15:25:03.217Z,92.14
2023-05-06T15:28:05.606Z,89.84
2023-05-06T15:31:08.406Z,93.45
2023-05-06T15:34:11.316Z,96.53
2023-05-06T15:37:15.829Z,95.50
2023-05-06T15:40:17.725Z,94.56
2023-05-06T15:43:23.655Z,95.12
2023-05-06T15:46:27.357Z,95.05
2023-05-06T15:49:47.458Z,95.27
2023-05-06T15:52:52.603Z,93.99
2023-05-06T15:56:01.295Z,92.64
2023-05-06T15:59:09.482Z,92.18
2023-05-06T16:05:16.077Z,91.73
2023-05-06T16:08:17.868Z,90.10
2023-05-06T16:11:19.707Z,90.97
2023-05-06T16:14:21.552Z,90.91
2023-05-06T16:17:23.330Z,90.38
2023-05-06T16:20:25.130Z,89.76
2023-05-06T16:23:26.895Z,89.14
2023-05-06T16:26:28.603Z,88.91
2023-05-06T16:29:30.369Z,88.70
2023-05-06T16:32:32.749Z,88.31
2023-05-06T16:35:34.500Z,88.66
2023-05-06T16:38:36.655Z,89.16
2023-05-06T16:41:38.568Z,90.39
2023-05-06T16:44:40.629Z,90.73
2023-05-06T16:47:44.094Z,90.96
2023-05-06T16:50:46.212Z,92.04
2023-05-06T16:53:48.264Z,91.59
2023-05-06T16:56:52.648Z,91.09
2023-05-06T16:59:54.804Z,90.99
2023-05-06T17:02:56.843Z,92.43
2023-05-06T17:05:58.763Z,93.85
2023-05-06T17:09:00.498Z,91.94
2023-05-06T17:12:02.424Z,92.25
2023-05-06T17:15:05.281Z,92.57
2023-05-06T17:18:07.206Z,92.55
2023-05-06T17:21:09.062Z,92.57
2023-05-06T17:24:10.836Z,93.17
2023-05-06T17:27:12.719Z,94.53
2023-05-06T17:30:15.102Z,94.56
2023-05-06T17:33:17.029Z,95.01
2023-05-06T17:36:19.415Z,95.27
2023-05-06T17:39:21.357Z,95.24
2023-05-06T17:42:23.213Z,96.37
2023-05-06T17:45:26.772Z,96.61
2023-05-06T17:48:28.519Z,96.58
2023-05-06T17:51:30.296Z,96.67
2023-05-06T17:54:36.400Z,96.63
2023-05-06T17:57:38.204Z,96.43
2023-05-06T18:00:40.249Z,96.43
2023-05-06T18:03:43.896Z,96.45
2023-05-06T18:06:46.562Z,96.25
2023-05-06T18:09:51.973Z,96.95
2023-05-06T18:12:55.526Z,96.74
2023-05-06T18:15:57.454Z,97.07
2023-05-06T18:19:02.549Z,96.78
2023-05-06T18:22:04.515Z,97.24
2023-05-06T18:25:07.227Z,97.84
2023-05-06T18:28:09.337Z,98.16
2023-05-06T18:31:11.212Z,98.18
2023-05-06T18:34:13.355Z,98.49
2023-05-06T18:37:15.118Z,98.64
2023-05-06T18:40:17.858Z,98.87
2023-05-06T18:43:19.701Z,100.00
2023-05-06T18:46:21.524Z,100.00
2023-05-06T18:49:23.694Z,100.00
2023-05-06T18:52:25.682Z,100.00
2023-05-06T18:55:27.902Z,100.00
2023-05-06T18:58:29.897Z,100.00
2023-05-06T19:01:31.840Z,100.00
2023-05-06T19:04:33.844Z,100.00
2023-05-06T19:07:35.873Z,100.00
2023-05-06T19:10:38.242Z,100.00
2023-05-06T19:13:40.801Z,100.00
2023-05-06T19:16:42.764Z,100.00
2023-05-06T19:19:46.980Z,100.00
2023-05-06T19:22:48.905Z,100.00
2023-05-06T19:25:50.826Z,100.00
2023-05-06T19:28:52.632Z,100.00
2023-05-06T19:31:54.694Z,100.00
2023-05-06T19:34:56.851Z,100.00
2023-05-06T19:37:58.877Z,100.00
2023-05-06T19:41:01.141Z,100.00
2023-05-06T19:44:03.019Z,100.00
2023-05-06T19:47:04.958Z,100.00
2023-05-06T19:50:07.454Z,100.00
2023-05-06T19:53:09.392Z,100.00
2023-05-06T19:56:12.620Z,100.00
2023-05-06T19:59:14.619Z,100.00
2023-05-06T20:02:16.895Z,100.00
2023-05-06T20:05:19.016Z,100.00
2023-05-06T20:08:20.798Z,100.00
2023-05-06T20:11:23.072Z,100.00
2023-05-06T20:14:25.075Z,100.00
2023-05-06T20:17:27.184Z,100.00
2023-05-06T20:20:34.252Z,100.00
2023-05-06T20:23:36.269Z,100.00
2023-05-06T20:26:38.071Z,100.00
2023-05-06T20:29:40.038Z,100.00
2023-05-06T20:32:41.989Z,100.00
2023-05-06T20:35:43.706Z,100.00
2023-05-06T20:38:46.273Z,100.00
2023-05-06T20:41:48.206Z,100.00
2023-05-06T20:44:53.284Z,100.00
2023-05-06T20:47:55.173Z,100.00
2023-05-06T20:50:57.895Z,100.00
2023-05-06T20:54:01.052Z,100.00
2023-05-06T20:57:03.055Z,100.00
2023-05-06T21:00:07.777Z,100.00
2023-05-06T21:03:09.679Z,100.00
2023-05-06T21:06:12.608Z,100.00
2023-05-06T21:09:14.340Z,100.00
2023-05-06T21:12:16.392Z,100.00
2023-05-06T21:15:18.299Z,100.00
2023-05-06T21:18:20.468Z,100.00
2023-05-06T21:21:25.587Z,100.00
2023-05-06T21:24:27.378Z,100.00
2023-05-06T21:27:29.090Z,100.00
2023-05-06T21:30:31.233Z,100.00
2023-05-06T21:33:33.380Z,100.00
2023-05-06T21:36:36.280Z,100.00
2023-05-06T21:39:38.354Z,100.00
2023-05-06T21:42:40.230Z,100.00
2023-05-06T21:45:42.002Z,100.00
2023-05-06T21:48:43.741Z,100.00
2023-05-06T21:51:45.515Z,100.00
2023-05-06T21:54:47.472Z,100.00
2023-05-06T21:57:49.397Z,100.00
2023-05-06T22:00:52.317Z,100.00
2023-05-06T22:03:54.284Z,100.00
2023-05-06T22:06:56.937Z,100.00
2023-05-06T22:09:58.746Z,100.00
2023-05-06T22:13:00.758Z,100.00
2023-05-06T22:16:04.140Z,100.00
2023-05-06T22:19:06.747Z,100.00
2023-05-06T22:22:09.146Z,100.00
2023-05-06T22:25:11.377Z,100.00
2023-05-06T22:28:13.637Z,100.00
2023-05-06T22:31:15.627Z,100.00
2023-05-06T22:34:17.841Z,100.00
2023-05-06T22:37:19.792Z,100.00
2023-05-06T22:40:21.638Z,100.00
2023-05-06T22:43:23.399Z,100.00
2023-05-06T22:46:25.964Z,100.00
2023-05-06T22:49:28.775Z,100.00
2023-05-06T22:52:30.643Z,100.00
2023-05-06T22:55:32.666Z,100.00
2023-05-06T22:58:34.487Z,100.00
2023-05-06T23:01:36.382Z,100.00
2023-05-06T23:04:38.978Z,100.00
2023-05-06T23:07:40.944Z,100.00
2023-05-06T23:10:43.091Z,100.00
2023-05-06T23:13:45.004Z,100.00
2023-05-06T23:16:47.036Z,100.00
2023-05-06T23:19:48.793Z,100.00
2023-05-06T23:22:50.693Z,100.00
2023-05-06T23:25:53.338Z,100.00
2023-05-06T23:28:55.157Z,100.00
2023-05-06T23:31:57.236Z,100.00
2023-05-06T23:34:59.169Z,100.00
2023-05-06T23:38:01.003Z,100.00
2023-05-06T23:41:02.754Z,100.00
2023-05-06T23:44:04.828Z,100.00
2023-05-06T23:47:06.582Z,100.00
2023-05-06T23:50:08.951Z,100.00
2023-05-06T23:53:11.551Z,100.00
2023-05-06T23:56:13.350Z,100.00
2023-05-06T23:59:15.266Z,100.00
